Time;durP1;ratioP1;P1;durP2;ratioP2;P2;SDS_P1;SDS_P2;PMS_P1;PMS_P2;Temp;Humidity;BMP_temperature;BMP_pressure;BME280_temperature;BME280_humidity;BME280_pressure;Samples;Min_cycle;Max_cycle;Signal;HPM_P1;HPM_P2
2023/04/05 00:01:29;;;;;;;6.77;4.00;;;1.60;99.90;;;;;;5054223;28;20226;-41
2023/04/05 00:03:59;;;;;;;8.17;4.50;;;1.50;99.90;;;;;;5054323;28;20184;-43
2023/04/05 00:06:25;;;;;;;5.90;3.80;;;1.50;99.90;;;;;;5053918;28;20183;-43
2023/04/05 00:09:02;;;;;;;6.47;3.87;;;1.40;99.90;;;;;;5054290;28;20192;-46
2023/04/05 00:11:30;;;;;;;7.37;4.17;;;1.40;99.90;;;;;;5054029;28;20208;-42
2023/04/05 00:13:58;;;;;;;6.00;3.80;;;1.40;99.90;;;;;;5053803;28;20184;-44
2023/04/05 00:16:24;;;;;;;6.27;3.30;;;1.30;99.90;;;;;;5053773;28;20212;-44
2023/04/05 00:18:50;;;;;;;6.20;3.27;;;1.30;99.90;;;;;;5054056;28;20184;-44
2023/04/05 00:21:17;;;;;;;7.13;3.47;;;1.20;99.90;;;;;;5054068;28;20196;-45
2023/04/05 00:23:43;;;;;;;6.07;2.87;;;1.20;99.90;;;;;;5055135;28;20207;-44
2023/04/05 00:26:10;;;;;;;6.73;3.90;;;1.10;99.90;;;;;;5053673;28;20192;-45
2023/04/05 00:28:35;;;;;;;3.70;3.10;;;1.00;99.90;;;;;;5054200;28;20191;-45
2023/04/05 00:31:01;;;;;;;6.10;3.37;;;1.00;99.90;;;;;;5053829;28;20204;-47
2023/04/05 00:33:27;;;;;;;6.10;3.93;;;1.00;99.90;;;;;;5052465;28;20180;-49
2023/04/05 00:35:52;;;;;;;6.00;3.70;;;0.90;99.90;;;;;;5053833;28;20203;-50
2023/04/05 00:38:18;;;;;;;5.17;3.63;;;0.90;99.90;;;;;;5053448;28;20186;-47
2023/04/05 00:40:43;;;;;;;7.13;3.60;;;0.80;99.90;;;;;;5053286;28;20192;-49
2023/04/05 00:43:09;;;;;;;5.27;3.80;;;0.80;99.90;;;;;;5053340;28;20263;-48
2023/04/05 00:45:35;;;;;;;6.73;3.73;;;0.70;99.90;;;;;;5053674;28;20634;-48
2023/04/05 00:48:00;;;;;;;5.90;3.97;;;0.70;99.90;;;;;;5053566;28;20183;-48
2023/04/05 00:50:29;;;;;;;6.90;3.87;;;0.70;99.90;;;;;;5053364;28;20218;-50
2023/04/05 00:52:56;;;;;;;5.83;4.10;;;0.70;99.90;;;;;;5056581;28;20200;-47
2023/04/05 00:55:22;;;;;;;9.13;4.67;;;0.70;99.90;;;;;;5057734;28;20211;-50
2023/04/05 00:57:48;;;;;;;7.10;4.40;;;0.70;99.90;;;;;;5057553;28;20310;-50
2023/04/05 01:00:14;;;;;;;7.07;4.97;;;0.70;99.90;;;;;;5057722;28;20211;-49
2023/04/05 01:02:47;;;;;;;9.20;5.30;;;0.60;99.90;;;;;;5057225;28;20278;-49
2023/04/05 01:05:41;;;;;;;6.73;4.80;;;0.60;99.90;;;;;;5057681;28;20179;-48
2023/04/05 01:08:51;;;;;;;8.73;4.77;;;0.60;99.90;;;;;;5057509;28;20582;-47
2023/04/05 01:11:17;;;;;;;8.07;5.33;;;0.50;99.90;;;;;;5057310;28;20698;-49
2023/04/05 01:13:45;;;;;;;10.60;4.63;;;0.50;99.90;;;;;;5057248;28;20172;-48
2023/04/05 01:16:11;;;;;;;8.63;4.73;;;0.50;99.90;;;;;;5056959;28;20219;-49
2023/04/05 01:18:37;;;;;;;7.13;5.37;;;0.40;99.90;;;;;;5057220;28;20184;-46
2023/04/05 01:21:22;;;;;;;8.27;5.30;;;0.50;99.90;;;;;;5057179;28;20196;-48
2023/04/05 01:24:15;;;;;;;11.10;5.23;;;0.40;99.90;;;;;;5057137;28;20200;-48
2023/04/05 01:27:17;;;;;;;8.17;4.63;;;0.40;99.90;;;;;;5056935;28;20165;-48
2023/04/05 01:30:05;;;;;;;9.77;5.40;;;0.40;99.90;;;;;;5057057;28;20168;-48
2023/04/05 01:32:52;;;;;;;6.07;3.70;;;0.40;99.90;;;;;;5056719;28;20204;-49
2023/04/05 01:35:38;;;;;;;5.77;3.20;;;0.40;99.90;;;;;;5056920;28;20203;-49
2023/04/05 01:38:06;;;;;;;4.13;3.13;;;0.40;99.90;;;;;;5057115;28;20194;-48
2023/04/05 01:40:32;;;;;;;12.17;3.97;;;0.30;99.90;;;;;;5056727;28;20187;-48
2023/04/05 01:43:01;;;;;;;5.90;3.87;;;0.30;99.90;;;;;;5057613;28;20235;-50
2023/04/05 01:45:27;;;;;;;5.93;4.23;;;0.30;99.90;;;;;;5056967;28;20652;-49
2023/04/05 01:47:52;;;;;;;8.13;4.07;;;0.30;99.90;;;;;;5057393;28;20266;-49
2023/04/05 01:50:18;;;;;;;6.40;4.13;;;0.20;99.90;;;;;;5057595;28;20203;-49
2023/04/05 01:52:44;;;;;;;5.90;4.47;;;0.20;99.90;;;;;;5058044;28;20211;-48
2023/04/05 01:55:09;;;;;;;8.53;4.30;;;0.20;99.90;;;;;;5058379;28;20208;-47
2023/04/05 01:57:35;;;;;;;5.90;4.30;;;0.20;99.90;;;;;;5057723;28;20203;-47
2023/04/05 02:00:01;;;;;;;6.60;4.27;;;0.20;99.90;;;;;;5056221;28;20188;-47
2023/04/05 02:02:26;;;;;;;7.17;4.73;;;0.20;99.90;;;;;;5056144;28;20196;-49
2023/04/05 02:04:52;;;;;;;6.13;4.00;;;0.20;99.90;;;;;;5056119;28;20201;-48
2023/04/05 02:07:17;;;;;;;6.40;4.23;;;0.10;99.90;;;;;;5056124;28;20172;-49
2023/04/05 02:09:43;;;;;;;8.17;4.17;;;0.10;99.90;;;;;;5056087;28;20259;-49
2023/04/05 02:12:08;;;;;;;7.40;4.40;;;0.10;99.90;;;;;;5055903;28;20237;-48
2023/04/05 02:14:34;;;;;;;6.50;4.07;;;0.10;99.90;;;;;;5055863;28;20188;-47
2023/04/05 02:17:01;;;;;;;6.07;4.13;;;0.10;99.90;;;;;;5055949;28;20202;-49
2023/04/05 02:19:28;;;;;;;6.70;4.20;;;0.10;99.90;;;;;;5055957;28;20251;-46
2023/04/05 02:21:54;;;;;;;6.77;3.47;;;0.00;99.90;;;;;;5056914;28;20207;-45
2023/04/05 02:24:20;;;;;;;4.10;2.90;;;0.10;99.90;;;;;;5056400;28;20178;-44
2023/04/05 02:26:46;;;;;;;5.30;3.30;;;0.00;99.90;;;;;;5056250;28;20163;-44
2023/04/05 02:29:11;;;;;;;5.83;3.17;;;-0.10;99.90;;;;;;5055840;28;20599;-45
2023/04/05 02:31:37;;;;;;;3.87;2.90;;;-0.10;99.90;;;;;;5055621;28;20196;-46
2023/04/05 02:34:04;;;;;;;4.27;3.23;;;-0.20;99.90;;;;;;5055727;28;20190;-45
2023/04/05 02:36:30;;;;;;;5.30;3.50;;;-0.20;99.90;;;;;;5055869;28;20247;-46
2023/04/05 02:38:55;;;;;;;5.07;3.60;;;-0.30;99.90;;;;;;5055648;28;20604;-46
2023/04/05 02:41:22;;;;;;;5.33;3.67;;;-0.30;99.90;;;;;;5055819;28;20200;-46
2023/04/05 02:43:49;;;;;;;7.47;4.50;;;-0.30;99.90;;;;;;5055712;28;20643;-45
2023/04/05 02:46:14;;;;;;;9.33;4.53;;;-0.40;99.90;;;;;;5056071;28;20188;-46
2023/04/05 02:48:40;;;;;;;8.67;4.60;;;-0.40;99.90;;;;;;5055747;28;20571;-44
2023/04/05 02:51:06;;;;;;;6.73;4.07;;;-0.40;99.90;;;;;;5055350;28;20196;-46
2023/04/05 02:53:31;;;;;;;4.70;3.70;;;-0.40;99.90;;;;;;5055491;28;20281;-46
2023/04/05 02:55:58;;;;;;;9.20;4.00;;;-0.50;99.90;;;;;;5055151;28;20223;-46
2023/04/05 02:58:24;;;;;;;7.27;4.57;;;-0.50;99.90;;;;;;5055450;28;20188;-44
2023/04/05 03:00:51;;;;;;;7.90;4.93;;;-0.50;99.90;;;;;;5055363;28;20190;-44
2023/04/05 03:03:18;;;;;;;7.60;5.17;;;-0.50;99.90;;;;;;5055042;28;20268;-45
2023/04/05 03:05:45;;;;;;;8.40;5.30;;;-0.50;99.90;;;;;;5055221;28;20195;-45
2023/04/05 03:08:17;;;;;;;8.13;4.20;;;-0.50;99.90;;;;;;5055407;28;20191;-48
2023/04/05 03:10:46;;;;;;;8.97;4.80;;;-0.50;99.90;;;;;;5055240;28;20175;-45
2023/04/05 03:13:13;;;;;;;7.27;4.90;;;-0.60;99.90;;;;;;5055224;28;20230;-45
2023/04/05 03:15:39;;;;;;;10.13;5.50;;;-0.50;99.90;;;;;;5054744;28;20253;-43
2023/04/05 03:18:05;;;;;;;7.83;5.07;;;-0.60;99.90;;;;;;5055008;28;20200;-44
2023/04/05 03:20:34;;;;;;;10.50;4.77;;;-0.60;99.90;;;;;;5054693;28;20910;-46
2023/04/05 03:22:59;;;;;;;8.13;5.13;;;-0.60;99.90;;;;;;5055730;28;20257;-43
2023/04/05 03:25:25;;;;;;;7.73;5.00;;;-0.70;99.90;;;;;;5054874;28;20187;-46
2023/04/05 03:27:51;;;;;;;8.47;5.23;;;-0.70;99.90;;;;;;5055071;28;20573;-46
2023/04/05 03:30:17;;;;;;;8.77;5.70;;;-0.70;99.90;;;;;;5054655;28;20184;-44
2023/04/05 03:32:43;;;;;;;6.37;4.83;;;-0.70;99.90;;;;;;5055131;28;20267;-45
2023/04/05 03:35:08;;;;;;;8.17;4.87;;;-0.70;99.90;;;;;;5054826;28;20814;-45
2023/04/05 03:37:34;;;;;;;9.90;5.17;;;-0.80;99.90;;;;;;5055059;28;20182;-44
2023/04/05 03:39:59;;;;;;;7.60;5.53;;;-0.80;99.90;;;;;;5055207;28;20194;-43
2023/04/05 03:42:25;;;;;;;8.17;5.33;;;-0.80;99.90;;;;;;5054273;28;20210;-44
2023/04/05 03:44:52;;;;;;;6.60;4.60;;;-0.90;99.90;;;;;;5054660;28;20183;-44
2023/04/05 03:47:18;;;;;;;7.87;5.13;;;-0.90;99.90;;;;;;5054648;28;20240;-43
2023/04/05 03:49:43;;;;;;;6.40;4.77;;;-0.90;99.90;;;;;;5055134;28;20430;-45
2023/04/05 03:52:09;;;;;;;8.20;5.17;;;-1.00;99.90;;;;;;5054161;28;20279;-46
2023/04/05 03:54:34;;;;;;;8.73;5.23;;;-1.00;99.90;;;;;;5054337;28;20185;-45
2023/04/05 03:57:01;;;;;;;8.70;4.87;;;-1.00;99.90;;;;;;5054235;28;20195;-45
2023/04/05 03:59:26;;;;;;;9.30;5.10;;;-1.10;99.90;;;;;;5054275;28;20232;-43
2023/04/05 04:01:52;;;;;;;7.23;5.30;;;-1.10;99.90;;;;;;5054161;28;20437;-43
2023/04/05 04:04:17;;;;;;;10.07;5.23;;;-1.20;99.90;;;;;;5054091;28;20206;-46
2023/04/05 04:06:43;;;;;;;8.07;4.60;;;-1.20;99.90;;;;;;5053929;28;20182;-45
2023/04/05 04:09:08;;;;;;;9.43;5.47;;;-1.20;99.90;;;;;;5054155;28;20648;-45
2023/04/05 04:11:34;;;;;;;7.63;5.17;;;-1.30;99.90;;;;;;5054055;28;20229;-46
2023/04/05 04:14:00;;;;;;;8.80;5.50;;;-1.30;99.90;;;;;;5054161;28;20265;-45
2023/04/05 04:16:26;;;;;;;9.33;5.30;;;-1.30;99.90;;;;;;5054211;28;20250;-44
2023/04/05 04:18:53;;;;;;;8.17;5.13;;;-1.30;99.90;;;;;;5053989;28;20181;-46
2023/04/05 04:21:23;;;;;;;9.40;5.60;;;-1.40;99.90;;;;;;5054775;28;20205;-45
2023/04/05 04:23:50;;;;;;;12.63;5.93;;;-1.40;99.90;;;;;;5054489;28;20409;-43
2023/04/05 04:26:25;;;;;;;11.07;6.00;;;-1.40;99.90;;;;;;5053442;28;20432;-45
2023/04/05 04:28:52;;;;;;;8.17;5.37;;;-1.40;99.90;;;;;;5053957;28;20402;-44
2023/04/05 04:31:20;;;;;;;8.17;5.03;;;-1.40;99.90;;;;;;5054301;28;20439;-45
2023/04/05 04:33:48;;;;;;;9.83;4.77;;;-1.40;99.90;;;;;;5053229;28;20438;-46
2023/04/05 04:36:13;;;;;;;8.80;5.27;;;-1.40;99.90;;;;;;5053496;28;20255;-46
2023/04/05 04:38:43;;;;;;;10.43;5.07;;;-1.50;99.90;;;;;;5053637;28;20450;-44
2023/04/05 04:41:12;;;;;;;9.40;5.30;;;-1.50;99.90;;;;;;5053668;28;20252;-46
2023/04/05 04:43:44;;;;;;;8.53;5.50;;;-1.60;99.90;;;;;;5053731;28;20494;-45
2023/04/05 04:46:13;;;;;;;11.10;5.50;;;-1.60;99.90;;;;;;5053613;28;20391;-46
2023/04/05 04:48:42;;;;;;;10.87;5.90;;;-1.60;99.90;;;;;;5053601;28;20927;-44
2023/04/05 04:51:08;;;;;;;10.53;5.57;;;-1.70;99.90;;;;;;5053821;28;20472;-44
2023/04/05 04:53:33;;;;;;;9.17;5.87;;;-1.70;99.90;;;;;;5053760;28;20451;-45
2023/04/05 04:55:59;;;;;;;7.33;5.10;;;-1.70;99.90;;;;;;5053631;28;20232;-47
2023/04/05 04:58:25;;;;;;;9.53;6.00;;;-1.70;99.90;;;;;;5053330;28;20194;-44
2023/04/05 05:00:51;;;;;;;10.33;6.20;;;-1.80;99.90;;;;;;5053963;28;20632;-45
2023/04/05 05:03:18;;;;;;;12.17;6.33;;;-1.80;99.90;;;;;;5053356;28;20231;-46
2023/04/05 05:05:49;;;;;;;9.60;6.33;;;-1.80;99.90;;;;;;5053346;28;20419;-44
2023/04/05 05:08:15;;;;;;;11.50;6.37;;;-1.80;99.90;;;;;;5053544;28;20399;-46
2023/04/05 05:10:41;;;;;;;8.60;6.00;;;-1.90;99.90;;;;;;5053541;28;20502;-44
2023/04/05 05:13:07;;;;;;;10.50;5.77;;;-1.90;99.90;;;;;;5053582;28;20486;-45
2023/04/05 05:15:33;;;;;;;11.97;6.37;;;-1.90;99.90;;;;;;5052247;28;20200;-44
2023/04/05 05:17:58;;;;;;;12.43;6.50;;;-1.90;99.90;;;;;;5053292;28;20700;-43
2023/04/05 05:20:27;;;;;;;10.73;6.70;;;-1.90;99.90;;;;;;5053445;28;20574;-45
2023/04/05 05:22:57;;;;;;;12.63;7.30;;;-1.90;99.90;;;;;;5053930;28;20612;-46
2023/04/05 05:25:22;;;;;;;9.37;5.97;;;-1.80;99.90;;;;;;5053221;28;20897;-46
2023/04/05 05:27:49;;;;;;;9.90;6.17;;;-1.80;99.90;;;;;;5053560;28;20420;-44
2023/04/05 05:30:15;;;;;;;11.73;5.97;;;-1.80;99.90;;;;;;5053496;28;20187;-44
2023/04/05 05:32:41;;;;;;;10.57;6.90;;;-1.80;99.90;;;;;;5052654;28;20442;-44
2023/04/05 05:35:08;;;;;;;9.70;6.73;;;-1.80;99.90;;;;;;5053453;28;20206;-45
2023/04/05 05:37:34;;;;;;;12.60;7.07;;;-1.80;99.90;;;;;;5054627;28;20411;-44
2023/04/05 05:40:00;;;;;;;9.60;6.80;;;-1.80;99.90;;;;;;5057287;28;20403;-46
2023/04/05 05:42:28;;;;;;;11.80;6.43;;;-1.80;99.90;;;;;;5057294;28;20980;-45
2023/04/05 05:44:54;;;;;;;10.03;6.43;;;-1.80;99.90;;;;;;5056730;28;20184;-45
2023/04/05 05:47:19;;;;;;;12.63;6.67;;;-1.80;99.90;;;;;;5057216;28;20415;-46
2023/04/05 05:49:45;;;;;;;11.97;6.47;;;-1.80;99.90;;;;;;5057751;28;20184;-46
2023/04/05 05:52:11;;;;;;;11.17;6.53;;;-1.80;99.90;;;;;;5057816;28;20251;-45
2023/04/05 05:54:36;;;;;;;12.57;7.40;;;-1.80;99.90;;;;;;5056801;28;20183;-45
2023/04/05 05:57:02;;;;;;;14.40;6.83;;;-1.80;99.90;;;;;;5055176;28;20242;-45
2023/04/05 05:59:28;;;;;;;9.93;6.73;;;-1.70;99.90;;;;;;5057308;28;20170;-46
2023/04/05 06:01:54;;;;;;;15.73;7.30;;;-1.70;99.90;;;;;;5056693;28;20284;-43
2023/04/05 06:04:20;;;;;;;14.33;8.00;;;-1.70;99.90;;;;;;5056600;28;20200;-50
2023/04/05 06:06:46;;;;;;;11.80;7.63;;;-1.60;99.90;;;;;;5055028;28;20455;-46
2023/04/05 06:09:12;;;;;;;14.27;8.20;;;-1.60;99.90;;;;;;5056377;28;20275;-45
2023/04/05 06:11:38;;;;;;;14.47;8.87;;;-1.50;99.90;;;;;;5055925;28;20839;-46
2023/04/05 06:14:04;;;;;;;16.17;9.10;;;-1.40;99.90;;;;;;5054760;28;20427;-45
2023/04/05 06:16:29;;;;;;;17.57;8.87;;;-1.40;99.90;;;;;;5056150;28;20205;-46
2023/04/05 06:18:56;;;;;;;15.53;9.63;;;-1.30;99.90;;;;;;5054709;28;20225;-49
2023/04/05 06:21:22;;;;;;;18.90;10.40;;;-1.20;99.90;;;;;;5055786;28;20188;-49
2023/04/05 06:23:47;;;;;;;14.63;9.47;;;-1.00;99.90;;;;;;5057107;28;20453;-50
2023/04/05 06:26:19;;;;;;;14.33;9.73;;;-0.80;99.90;;;;;;5055974;28;20192;-49
2023/04/05 06:28:46;;;;;;;17.57;10.50;;;-0.50;99.90;;;;;;5055603;28;20655;-48
2023/04/05 06:31:14;;;;;;;20.73;11.37;;;-0.20;99.90;;;;;;5055560;28;20792;-48
2023/04/05 06:33:40;;;;;;;16.27;10.70;;;0.10;99.90;;;;;;5055789;28;20417;-48
2023/04/05 06:36:06;;;;;;;17.97;11.83;;;0.40;99.90;;;;;;5055917;28;20538;-49
2023/04/05 06:38:32;;;;;;;25.23;12.33;;;0.70;99.90;;;;;;5055571;28;20201;-49
2023/04/05 06:40:57;;;;;;;22.07;12.27;;;1.00;99.90;;;;;;5055479;28;21017;-48
2023/04/05 06:43:23;;;;;;;22.83;11.80;;;1.20;99.90;;;;;;5055885;28;20261;-49
2023/04/05 06:45:49;;;;;;;18.97;11.60;;;1.50;99.90;;;;;;5055759;28;20208;-48
2023/04/05 06:48:14;;;;;;;22.63;12.57;;;1.70;99.90;;;;;;5055962;28;20625;-50
2023/04/05 06:50:40;;;;;;;20.77;11.37;;;1.90;99.90;;;;;;5055011;28;20178;-49
2023/04/05 06:53:06;;;;;;;23.17;12.33;;;2.10;99.90;;;;;;5055416;28;20232;-50
2023/04/05 06:55:32;;;;;;;23.60;11.67;;;2.30;99.90;;;;;;5055164;28;20209;-50
2023/04/05 06:57:57;;;;;;;20.53;12.27;;;2.60;99.90;;;;;;5055214;28;20454;-50
2023/04/05 07:00:23;;;;;;;19.47;12.77;;;2.80;99.90;;;;;;5055977;28;20653;-50
2023/04/05 07:02:49;;;;;;;19.53;12.30;;;3.00;99.90;;;;;;5055529;28;20670;-43
2023/04/05 07:05:14;;;;;;;26.33;14.60;;;3.20;99.90;;;;;;5055653;28;20180;-46
2023/04/05 07:07:43;;;;;;;19.40;12.23;;;3.40;99.90;;;;;;5056406;28;20186;-50
2023/04/05 07:10:09;;;;;;;18.87;11.73;;;3.70;99.90;;;;;;5055994;28;20194;-42
2023/04/05 07:12:35;;;;;;;18.17;10.70;;;3.90;99.90;;;;;;5056056;28;20200;-46
2023/04/05 07:15:01;;;;;;;21.70;11.83;;;4.10;99.90;;;;;;5055439;28;20207;-44
2023/04/05 07:17:27;;;;;;;22.30;11.47;;;4.30;99.90;;;;;;5055103;28;20351;-44
2023/04/05 07:19:52;;;;;;;24.67;11.33;;;4.50;99.90;;;;;;5055373;28;20178;-45
2023/04/05 07:22:18;;;;;;;18.40;10.90;;;4.60;99.90;;;;;;5056665;28;20189;-43
2023/04/05 07:24:44;;;;;;;14.93;9.87;;;4.70;99.90;;;;;;5055017;28;20200;-44
2023/04/05 07:27:10;;;;;;;16.70;10.57;;;4.90;99.90;;;;;;5055071;28;20259;-45
2023/04/05 07:29:39;;;;;;;15.37;10.13;;;5.10;99.90;;;;;;5055448;28;20683;-44
2023/04/05 07:32:06;;;;;;;13.73;9.73;;;5.20;99.90;;;;;;5055944;28;20671;-44
2023/04/05 07:34:32;;;;;;;16.63;8.97;;;5.30;99.90;;;;;;5060153;28;20177;-45
2023/04/05 07:36:58;;;;;;;12.67;9.43;;;5.50;99.90;;;;;;5059844;28;20195;-44
2023/04/05 07:39:23;;;;;;;17.17;10.17;;;5.60;99.90;;;;;;5060860;28;20631;-44
2023/04/05 07:41:49;;;;;;;16.83;9.40;;;5.70;99.90;;;;;;5059598;28;20342;-42
2023/04/05 07:44:14;;;;;;;14.57;9.63;;;5.80;99.90;;;;;;5055286;28;20184;-43
2023/04/05 07:46:43;;;;;;;15.17;9.53;;;5.90;99.90;;;;;;5054908;28;20192;-45
2023/04/05 07:49:11;;;;;;;18.03;9.07;;;6.00;99.90;;;;;;5054878;28;20192;-41
2023/04/05 07:51:37;;;;;;;14.13;8.87;;;6.20;99.90;;;;;;5054377;28;20203;-45
2023/04/05 07:54:06;;;;;;;14.53;7.90;;;6.30;99.90;;;;;;5055401;28;20197;-43
2023/04/05 07:56:32;;;;;;;15.77;8.43;;;6.40;99.90;;;;;;5054369;28;20216;-43
2023/04/05 07:58:58;;;;;;;13.50;7.87;;;6.60;99.90;;;;;;5054220;28;20209;-46
2023/04/05 08:01:26;;;;;;;16.70;9.07;;;6.70;99.90;;;;;;5053508;28;20211;-44
2023/04/05 08:03:53;;;;;;;14.40;8.33;;;6.70;99.90;;;;;;5054214;28;20192;-45
2023/04/05 08:06:19;;;;;;;19.50;8.73;;;6.80;99.90;;;;;;5054191;28;20192;-45
2023/04/05 08:08:46;;;;;;;11.40;7.83;;;6.90;99.90;;;;;;5054015;28;20241;-47
2023/04/05 08:11:12;;;;;;;14.33;7.90;;;7.10;99.90;;;;;;5055842;28;20353;-43
2023/04/05 08:13:40;;;;;;;15.93;7.30;;;7.20;99.90;;;;;;5054395;28;20179;-46
2023/04/05 08:16:09;;;;;;;11.60;8.07;;;7.10;99.90;;;;;;5053919;28;20215;-47
2023/04/05 08:18:35;;;;;;;11.97;7.83;;;7.20;99.90;;;;;;5053844;28;20579;-45
2023/04/05 08:21:01;;;;;;;11.40;7.83;;;7.30;99.90;;;;;;5053846;28;20202;-45
2023/04/05 08:23:27;;;;;;;12.33;7.57;;;7.50;99.90;;;;;;5054662;28;20260;-49
2023/04/05 08:25:53;;;;;;;15.70;8.30;;;7.60;99.90;;;;;;5053586;28;20187;-50
2023/04/05 08:28:19;;;;;;;16.70;7.93;;;7.70;99.90;;;;;;5053829;28;20269;-49
2023/04/05 08:30:46;;;;;;;13.63;7.73;;;7.90;99.90;;;;;;5053393;28;20189;-49
2023/04/05 08:33:12;;;;;;;13.27;7.37;;;8.00;99.90;;;;;;5053542;28;20196;-49
2023/04/05 08:35:38;;;;;;;12.53;7.23;;;8.00;99.90;;;;;;5053404;28;20284;-50
2023/04/05 08:38:06;;;;;;;13.87;8.10;;;8.10;99.90;;;;;;5053374;28;20257;-51
2023/04/05 08:40:39;;;;;;;15.70;8.23;;;8.30;99.90;;;;;;5053687;28;20586;-50
2023/04/05 08:43:28;;;;;;;11.10;7.40;;;8.50;99.90;;;;;;5053300;28;20174;-50
2023/04/05 08:45:58;;;;;;;10.77;7.63;;;8.70;99.90;;;;;;5053600;28;20173;-50
2023/04/05 08:48:26;;;;;;;11.33;7.50;;;8.60;99.90;;;;;;5053253;28;20673;-48
2023/04/05 08:50:52;;;;;;;14.43;7.87;;;8.40;99.90;;;;;;5053145;28;20189;-52
2023/04/05 08:53:19;;;;;;;10.67;7.40;;;8.20;99.90;;;;;;5053588;28;20313;-49
2023/04/05 08:55:50;;;;;;;11.33;7.33;;;8.10;99.90;;;;;;5053264;28;20210;-51
2023/04/05 08:58:16;;;;;;;10.00;7.50;;;8.30;99.90;;;;;;5053392;28;20264;-51
2023/04/05 09:00:42;;;;;;;13.60;7.50;;;8.60;99.90;;;;;;5053224;28;20188;-48
2023/04/05 09:03:15;;;;;;;9.80;7.30;;;9.40;99.90;;;;;;5053328;28;20259;-49
2023/04/05 09:05:47;;;;;;;16.57;7.30;;;9.00;99.90;;;;;;5053531;28;20183;-48
2023/04/05 09:08:13;;;;;;;14.60;7.33;;;9.10;99.90;;;;;;5053162;28;20176;-50
2023/04/05 09:10:42;;;;;;;12.07;7.30;;;9.20;99.90;;;;;;5053241;28;20723;-51
2023/04/05 09:13:08;;;;;;;11.17;7.03;;;9.40;99.90;;;;;;5055127;28;20183;-50
2023/04/05 09:15:37;;;;;;;11.27;6.70;;;9.60;99.90;;;;;;5057426;28;20302;-51
2023/04/05 09:18:03;;;;;;;11.77;7.23;;;9.70;99.90;;;;;;5057232;28;20172;-49
2023/04/05 09:20:29;;;;;;;9.47;7.07;;;9.70;99.90;;;;;;5057061;28;20188;-48
2023/04/05 09:22:58;;;;;;;10.73;6.70;;;9.70;99.90;;;;;;5058902;28;20200;-48
2023/04/05 09:25:38;;;;;;;14.70;7.77;;;9.80;99.90;;;;;;5057172;28;20592;-50
2023/04/05 09:28:05;;;;;;;11.50;7.77;;;9.90;99.90;;;;;;5057247;28;20180;-50
2023/04/05 09:30:32;;;;;;;11.23;7.63;;;9.90;99.90;;;;;;5057996;28;20246;-49
2023/04/05 09:32:58;;;;;;;13.80;8.00;;;10.00;99.90;;;;;;5057006;28;20212;-48
2023/04/05 09:35:29;;;;;;;13.60;8.03;;;10.20;99.90;;;;;;5056602;28;20227;-50
2023/04/05 09:37:57;;;;;;;11.97;7.57;;;10.20;99.90;;;;;;5056982;28;20211;-47
2023/04/05 09:40:23;;;;;;;12.63;7.17;;;10.10;99.90;;;;;;5057298;28;20590;-48
2023/04/05 09:42:49;;;;;;;16.67;7.60;;;10.20;99.90;;;;;;5056766;28;20380;-49
2023/04/05 09:45:17;;;;;;;12.20;7.03;;;10.30;99.90;;;;;;5057321;28;20222;-51
2023/04/05 09:47:52;;;;;;;11.73;7.30;;;10.20;99.90;;;;;;5056791;28;20202;-49
2023/04/05 09:50:18;;;;;;;10.53;7.53;;;10.30;99.90;;;;;;5056862;28;20175;-50
2023/04/05 09:52:44;;;;;;;13.13;7.93;;;10.50;99.90;;;;;;5056370;28;20207;-49
2023/04/05 09:55:11;;;;;;;12.27;7.80;;;10.50;99.90;;;;;;5056305;28;20208;-50
2023/04/05 09:57:38;;;;;;;12.53;7.33;;;10.60;99.90;;;;;;5056843;28;20556;-49
2023/04/05 10:00:06;;;;;;;12.30;7.63;;;10.60;99.90;;;;;;5056243;28;20188;-50
2023/04/05 10:02:36;;;;;;;12.30;7.77;;;10.80;99.90;;;;;;5056180;28;20188;-50
2023/04/05 10:05:06;;;;;;;14.87;7.37;;;10.90;99.90;;;;;;5056452;28;20192;-46
2023/04/05 10:07:33;;;;;;;11.43;7.23;;;10.90;99.90;;;;;;5057742;28;20189;-45
2023/04/05 10:10:00;;;;;;;14.23;7.73;;;10.90;99.90;;;;;;5056403;28;20657;-46
2023/04/05 10:12:27;;;;;;;12.43;7.53;;;10.80;99.90;;;;;;5056139;28;20680;-46
2023/04/05 10:14:54;;;;;;;12.17;6.97;;;10.70;99.90;;;;;;5055949;28;20190;-46
2023/04/05 10:17:24;;;;;;;8.57;6.53;;;10.40;99.90;;;;;;5055941;28;20195;-46
2023/04/05 10:20:15;;;;;;;10.13;7.60;;;10.20;99.90;;;;;;5055884;28;20175;-46
2023/04/05 10:22:47;;;;;;;11.80;7.50;;;10.00;99.90;;;;;;5055817;28;20193;-46
2023/04/05 10:25:20;;;;;;;13.30;7.57;;;9.80;99.90;;;;;;5055085;28;20168;-47
2023/04/05 10:27:55;;;;;;;22.33;8.17;;;9.80;99.90;;;;;;5056055;28;20620;-45
2023/04/05 10:30:23;;;;;;;15.00;7.97;;;10.00;99.90;;;;;;5055695;28;20631;-48
2023/04/05 10:33:09;;;;;;;13.27;7.37;;;10.20;99.90;;;;;;5055631;28;20196;-43
2023/04/05 10:36:08;;;;;;;11.27;6.30;;;10.30;99.90;;;;;;5055788;28;20640;-44
2023/04/05 10:39:02;;;;;;;13.73;7.53;;;10.20;99.90;;;;;;5053429;28;20192;-46
2023/04/05 10:41:33;;;;;;;13.93;7.67;;;10.10;99.90;;;;;;5053139;28;20574;-46
2023/04/05 10:44:00;;;;;;;13.53;6.67;;;10.00;99.90;;;;;;5054468;28;20165;-45
2023/04/05 10:46:26;;;;;;;8.67;6.17;;;10.00;99.90;;;;;;5055512;28;20637;-46
2023/04/05 10:49:30;;;;;;;12.07;7.03;;;10.10;99.90;;;;;;5055916;28;20176;-45
2023/04/05 10:51:56;;;;;;;10.60;6.93;;;10.10;99.90;;;;;;5055458;28;20195;-44
2023/04/05 10:54:22;;;;;;;11.20;6.77;;;10.00;99.90;;;;;;5055222;28;20182;-44
2023/04/05 10:56:48;;;;;;;12.83;6.43;;;10.20;99.90;;;;;;5055012;28;20291;-46
2023/04/05 10:59:14;;;;;;;20.03;7.37;;;10.50;99.90;;;;;;5055181;28;20194;-46
2023/04/05 11:01:41;;;;;;;14.37;7.17;;;10.70;99.90;;;;;;5055340;28;20197;-45
2023/04/05 11:04:10;;;;;;;13.47;6.53;;;10.70;99.90;;;;;;5055353;28;20180;-47
2023/04/05 11:06:36;;;;;;;9.13;5.87;;;10.80;99.90;;;;;;5055327;28;20249;-45
2023/04/05 11:09:16;;;;;;;8.30;5.57;;;10.70;99.90;;;;;;5053700;28;20648;-47
2023/04/05 11:11:45;;;;;;;7.80;5.10;;;10.70;99.90;;;;;;5054865;28;20200;-45
2023/04/05 11:14:32;;;;;;;8.13;5.33;;;10.80;99.90;;;;;;5055144;28;20654;-45
2023/04/05 11:16:58;;;;;;;9.73;5.50;;;10.90;99.90;;;;;;5054843;28;20239;-47
2023/04/05 11:19:42;;;;;;;6.50;4.87;;;10.90;99.90;;;;;;5053583;28;20212;-47
2023/04/05 11:22:11;;;;;;;7.30;4.80;;;10.90;99.90;;;;;;5054745;28;20216;-45
2023/04/05 11:25:01;;;;;;;5.43;4.47;;;11.20;99.90;;;;;;5054684;28;20176;-46
2023/04/05 11:27:30;;;;;;;5.40;4.60;;;11.50;99.90;;;;;;5054954;28;20207;-46
2023/04/05 11:29:57;;;;;;;6.60;4.30;;;11.80;99.90;;;;;;5054662;28;20200;-47
2023/04/05 11:32:23;;;;;;;5.63;4.27;;;12.00;99.90;;;;;;5054475;28;20282;-46
2023/04/05 11:35:06;;;;;;;9.50;5.10;;;12.10;99.90;;;;;;5054470;28;20223;-46
2023/04/05 11:37:51;;;;;;;7.40;5.20;;;12.10;99.90;;;;;;5055011;28;20608;-44
2023/04/05 11:40:28;;;;;;;7.43;5.20;;;12.00;99.90;;;;;;5054654;28;20176;-43
2023/04/05 11:43:06;;;;;;;7.23;5.93;;;11.90;99.90;;;;;;5054384;28;20192;-47
2023/04/05 11:45:33;;;;;;;9.03;6.00;;;11.90;99.90;;;;;;5054541;28;20549;-44
2023/04/05 11:48:03;;;;;;;10.03;6.20;;;12.00;99.90;;;;;;5054264;28;20187;-49
2023/04/05 11:50:30;;;;;;;10.43;5.90;;;11.80;99.90;;;;;;5054453;28;20234;-45
2023/04/05 11:53:17;;;;;;;7.87;5.63;;;11.70;99.90;;;;;;5054072;28;20283;-45
2023/04/05 11:55:49;;;;;;;8.60;6.07;;;11.90;99.90;;;;;;5054024;28;20274;-46
2023/04/05 11:58:16;;;;;;;9.47;6.00;;;12.20;99.90;;;;;;5054011;28;20195;-47
2023/04/05 12:00:43;;;;;;;9.37;5.87;;;12.30;99.90;;;;;;5054987;28;20193;-46
2023/04/05 12:03:13;;;;;;;11.73;6.33;;;12.30;99.90;;;;;;5054015;28;20578;-45
2023/04/05 12:05:45;;;;;;;11.10;5.70;;;12.20;99.90;;;;;;5054182;28;20191;-45
2023/04/05 12:08:11;;;;;;;8.53;5.90;;;12.10;99.80;;;;;;5054173;28;20180;-46
2023/04/05 12:10:37;;;;;;;8.10;6.03;;;12.00;99.90;;;;;;5054045;28;20584;-48
2023/04/05 12:13:02;;;;;;;9.93;6.50;;;12.00;99.90;;;;;;5054057;28;20647;-46
2023/04/05 12:15:28;;;;;;;8.67;6.40;;;12.00;99.90;;;;;;5053787;28;20203;-43
2023/04/05 12:17:53;;;;;;;15.53;6.23;;;12.10;99.90;;;;;;5054249;28;20565;-47
2023/04/05 12:20:24;;;;;;;10.83;6.20;;;12.20;99.90;;;;;;5053878;28;20172;-48
2023/04/05 12:22:52;;;;;;;7.93;5.90;;;12.50;99.90;;;;;;5054954;28;20653;-50
2023/04/05 12:25:19;;;;;;;11.97;6.50;;;12.90;99.90;;;;;;5053657;28;20208;-48
2023/04/05 12:27:45;;;;;;;9.67;5.90;;;12.90;99.90;;;;;;5054113;28;20176;-48
2023/04/05 12:30:16;;;;;;;8.40;5.77;;;12.80;99.90;;;;;;5053937;28;20690;-48
2023/04/05 12:32:45;;;;;;;9.47;6.40;;;12.60;99.90;;;;;;5052191;28;20199;-50
2023/04/05 12:35:33;;;;;;;7.80;5.87;;;12.60;99.90;;;;;;5053759;28;20196;-49
2023/04/05 12:38:04;;;;;;;7.57;5.90;;;12.40;99.90;;;;;;5054087;28;20169;-49
2023/04/05 12:40:32;;;;;;;8.60;6.07;;;12.50;99.90;;;;;;5053680;28;20187;-50
2023/04/05 12:43:05;;;;;;;10.13;5.73;;;12.80;99.90;;;;;;5053390;28;20619;-49
2023/04/05 12:45:38;;;;;;;7.63;6.10;;;12.90;99.90;;;;;;5053584;28;20179;-49
2023/04/05 12:48:07;;;;;;;12.70;6.37;;;13.10;99.90;;;;;;5053161;28;20164;-49
2023/04/05 12:50:33;;;;;;;8.80;5.93;;;13.40;99.90;;;;;;5053322;28;20196;-49
2023/04/05 12:53:05;;;;;;;8.13;6.17;;;13.70;99.90;;;;;;5053203;28;20200;-50